Lähistön asemien METAR-raportit

 

EFJY - Jyvaskyla (mil/C, Finland
Etäisyys Sääasemalta: E 40km
Päivitetty: 20/06/2021 20:50
Selkeätä
Selkeätä
 Tuulen suunta E
Tuuli: E 6 km/h
Lämpötila: 22°C
Kastepiste: 16°C
Ilmankosteus: 69%
Ilmanpaine: 1012 hPa
Yhteenveto: Selkeätä
Näkyvyys: Enemmän Kuin 10 km
2021/06/20 20:50 EFJY 202050Z AUTO 18003KT CAVOK 22/16 Q1012
EFKU - Kuopio (mil/Civ), Finland
Etäisyys Sääasemalta: IKo 106km
Päivitetty: 20/06/2021 20:50
Selkeätä
Selkeätä
 Tuulen suunta varies
Tuuli: varies 4 km/h
Lämpötila: 22°C
Kastepiste: 17°C
Ilmankosteus: 73%
Ilmanpaine: 1011 hPa
Yhteenveto: Selkeätä
Näkyvyys: Enemmän Kuin 10 km
2021/06/20 20:50 EFKU 202050Z AUTO VRB02KT CAVOK 22/17 Q1011
EFHA - Halli (fin-Afb), Finland
Etäisyys Sääasemalta: ELo 113km
Päivitetty: 20/06/2021 20:50
Selkeätä
Selkeätä
 Tuulen suunta ELo
Tuuli: ELo 13 km/h
Lämpötila: 23°C
Kastepiste: 16°C
Ilmankosteus: 65%
Ilmanpaine: 1012 hPa
Yhteenveto: Selkeätä
Näkyvyys: Enemmän Kuin 10 km
2021/06/20 20:50 EFHA 202050Z AUTO 20007KT CAVOK 23/16 Q1012
 
EFMI - Mikkeli, Finland
Etäisyys Sääasemalta: EKa 140km
Päivitetty: 20/06/2021 20:50
Selkeätä
Selkeätä
 Tuulen suunta E
Tuuli: E 7 km/h
Lämpötila: 24°C
Kastepiste: 15°C
Ilmankosteus: 57%
Ilmanpaine: 1013 hPa
Yhteenveto: Selkeätä
Näkyvyys: Enemmän Kuin 10 km
2021/06/20 20:50 EFMI 202050Z AUTO 19004KT 160V220 CAVOK 24/15 Q1013
EFSI - Seinajoki-Ilmajo, Finland
Etäisyys Sääasemalta: L 150km
Päivitetty: 20/06/2021 20:50
Selkeätä
Selkeätä
 Tuulen suunta Ko
Tuuli: Ko 2 km/h
Lämpötila: 16°C
Kastepiste: 14°C
Ilmankosteus: 88%
Ilmanpaine: 1011 hPa
Yhteenveto: Selkeätä
Näkyvyys: Enemmän Kuin 10 km
2021/06/20 20:50 EFSI 202050Z AUTO 04001KT CAVOK 16/14 Q1011
EFKK - Kruunupyy, Finland
Etäisyys Sääasemalta: Lu 170km
Päivitetty: 20/06/2021 20:50
Enimmäkseen pilvistä
Enimmäkseen pilvistä
 Tuulen suunta PKo
Tuuli: PKo 6 km/h
Lämpötila: 12°C
Kastepiste: 11°C
Ilmankosteus: 94%
Ilmanpaine: 1012 hPa
Pilvisyys: Enimmäkseen pilvistä
Näkyvyys: 10 km
Pilvisyystiedot: Enimmäkseen pilvistä 213 m
2021/06/20 20:50 EFKK 202050Z AUTO 02003KT 350V050 9999 BKN007 12/11 Q1012
 
EFSA - Savonlinna (aut), Finland
Etäisyys Sääasemalta: IKa 186km
Päivitetty: 20/06/2021 20:50
Selkeätä
Selkeätä
 Tuulen suunta E
Tuuli: E 11 km/h
Lämpötila: 23°C
Kastepiste: 15°C
Ilmankosteus: 61%
Ilmanpaine: 1013 hPa
Yhteenveto: Selkeätä
Näkyvyys: Enemmän Kuin 10 km
2021/06/20 20:50 EFSA 202050Z AUTO 19006KT CAVOK 23/15 Q1013
EFTP - Tampere/Pirkkala, Finland
Etäisyys Sääasemalta: Lo 187km
Päivitetty: 20/06/2021 20:50
Selkeätä
Selkeätä
 Tuulen suunta E
Tuuli: E 11 km/h
Lämpötila: 23°C
Kastepiste: 16°C
Ilmankosteus: 65%
Ilmanpaine: 1012 hPa
Yhteenveto: Selkeätä
Näkyvyys: Enemmän Kuin 10 km
2021/06/20 20:50 EFTP 202050Z AUTO 18006KT CAVOK 23/16 Q1012
EFKI - Kajaani, Finland
Etäisyys Sääasemalta: PKo 192km
Päivitetty: 20/06/2021 20:50
Selkeätä
Selkeätä
 Tuulen suunta varies
Tuuli: varies 2 km/h
Lämpötila: 15°C
Kastepiste: 14°C
Ilmankosteus: 94%
Ilmanpaine: 1013 hPa
Yhteenveto: Selkeätä
Näkyvyys: Enemmän Kuin 10 km
2021/06/20 20:50 EFKI 202050Z AUTO VRB01KT CAVOK 15/14 Q1013
 
EFJO - Joensuu, Finland
Etäisyys Sääasemalta: I 196km
Päivitetty: 20/06/2021 20:20
Selkeätä
Selkeätä
 Tuulen suunta E
Tuuli: E 9 km/h
Lämpötila: 24°C
Kastepiste: 15°C
Ilmankosteus: 57%
Ilmanpaine: 1012 hPa
Yhteenveto: Selkeätä
Näkyvyys: Enemmän Kuin 10 km
2021/06/20 20:20 EFJO 202020Z AUTO 19005KT CAVOK 24/15 Q1012